Muschberg en Geestenberg, Netherlands
Current Conditions -  °F | °C
As of 11:12 PM on Sunday 25 Jan 2015 (Local Time) from EHEH Reporting Station
Light Rain Light Rain  
Wind Chill: 33°   Ceiling: 4900
Heat Index: 39°   Visibility: 4mi
Dew Point: 37°   Wind: 9mph
Humidity: 93%   Direction: 210°SSW
Pressure: 30.3"   Gusts: NA
Location:  51.44°N, 5.52°E
Report Text: EHEH 252212Z AUTO 21008KT 7000 -RA SCT025 OVC049 04/03 Q1026 WHT
Loading
Personal Weather Stations






























Interactive Weather Map New forecast layout! Learn more

10-Day Weather Forecast

Advertisements
Track Severe Weather on mobile